createdAt,value
2019-05-21T00:00:59.110Z,322.68
2019-05-21T00:01:59.092Z,322.63
2019-05-21T00:02:59.079Z,322.76
2019-05-21T00:03:59.071Z,322.96
2019-05-21T00:04:59.058Z,323.08
2019-05-21T00:05:59.048Z,322.41
2019-05-21T00:06:59.413Z,322.46
2019-05-21T00:07:59.025Z,322.74
2019-05-21T00:08:59.017Z,322.32
2019-05-21T00:09:59.022Z,323.06
2019-05-21T00:10:59.032Z,322.22
2019-05-21T00:11:59.035Z,322.54
2019-05-21T00:12:58.966Z,322.56
2019-05-21T00:13:58.956Z,322.54
2019-05-21T00:14:59.051Z,322.80
2019-05-21T00:15:58.932Z,322.32
2019-05-21T00:16:58.924Z,322.65
2019-05-21T00:17:58.927Z,322.90
2019-05-21T00:18:58.899Z,323.11
2019-05-21T00:19:58.892Z,323.03
2019-05-21T00:20:58.884Z,322.73
2019-05-21T00:21:58.864Z,322.72
2019-05-21T00:22:58.855Z,323.16
2019-05-21T00:23:58.844Z,322.98
2019-05-21T00:24:58.828Z,323.58
2019-05-21T00:25:58.821Z,322.38
2019-05-21T00:26:58.811Z,323.44
2019-05-21T00:27:58.795Z,324.17
2019-05-21T00:28:58.805Z,322.78
2019-05-21T00:29:58.787Z,323.78
2019-05-21T00:30:58.760Z,323.21
2019-05-21T00:31:58.744Z,323.20
2019-05-21T00:32:58.747Z,323.23
2019-05-21T00:33:58.790Z,322.25
2019-05-21T00:34:58.733Z,322.78
2019-05-21T00:35:58.707Z,323.12
2019-05-21T00:36:58.713Z,323.69
2019-05-21T00:37:58.684Z,324.27
2019-05-21T00:38:58.675Z,323.35
2019-05-21T00:39:58.696Z,322.96
2019-05-21T00:40:58.643Z,323.31
2019-05-21T00:41:58.637Z,323.08
2019-05-21T00:42:58.630Z,322.61
2019-05-21T00:43:58.609Z,323.00
2019-05-21T00:44:58.633Z,322.84
2019-05-21T00:45:58.590Z,323.27
2019-05-21T00:46:58.584Z,321.91
2019-05-21T00:47:58.568Z,322.43
2019-05-21T00:48:58.566Z,323.07
2019-05-21T00:49:58.545Z,322.70
2019-05-21T00:50:58.560Z,322.63
2019-05-21T00:52:07.168Z,321.63
2019-05-21T00:52:59.506Z,322.42
2019-05-21T00:53:58.523Z,322.37
2019-05-21T00:54:58.488Z,322.45
2019-05-21T00:55:58.485Z,323.16
2019-05-21T00:56:58.526Z,321.98
2019-05-21T00:57:58.453Z,323.24
2019-05-21T00:58:58.444Z,322.76
2019-05-21T00:59:58.441Z,322.79
2019-05-21T01:00:58.426Z,322.83
2019-05-21T01:01:58.436Z,322.98
2019-05-21T01:02:58.398Z,322.43
2019-05-21T01:03:58.385Z,322.74
2019-05-21T01:05:01.027Z,323.35
2019-05-21T01:05:58.362Z,322.29
2019-05-21T01:06:58.362Z,322.68
2019-05-21T01:07:58.337Z,322.85
2019-05-21T01:08:58.359Z,322.41
2019-05-21T01:09:58.314Z,323.19
2019-05-21T01:10:58.347Z,323.64
2019-05-21T01:11:58.297Z,323.35
2019-05-21T01:12:58.305Z,323.85
2019-05-21T01:13:58.270Z,323.90
2019-05-21T01:14:58.252Z,323.83
2019-05-21T01:15:58.250Z,323.85
2019-05-21T01:16:58.236Z,323.13
2019-05-21T01:17:58.226Z,323.49
2019-05-21T01:18:58.236Z,322.86
2019-05-21T01:19:58.200Z,323.30
2019-05-21T01:20:58.185Z,323.24
2019-05-21T01:21:58.204Z,323.69
2019-05-21T01:22:58.176Z,323.68
2019-05-21T01:23:58.191Z,323.62
2019-05-21T01:24:58.149Z,324.05
2019-05-21T01:25:58.132Z,323.22
2019-05-21T01:26:58.118Z,322.93
2019-05-21T01:27:58.125Z,323.26
2019-05-21T01:28:58.094Z,323.64
2019-05-21T01:29:58.086Z,323.06
2019-05-21T01:30:58.077Z,322.87
2019-05-21T01:31:58.079Z,323.21
2019-05-21T01:32:58.067Z,323.59
2019-05-21T01:33:58.038Z,323.44
2019-05-21T01:34:58.079Z,323.44
2019-05-21T01:35:58.016Z,323.24
2019-05-21T01:36:58.006Z,322.98
2019-05-21T01:37:57.994Z,323.85
2019-05-21T01:38:58.021Z,324.16
2019-05-21T01:39:57.981Z,323.44
2019-05-21T01:40:57.995Z,323.86
2019-05-21T01:41:57.978Z,323.40
2019-05-21T01:42:57.932Z,323.47
2019-05-21T01:43:57.944Z,323.54
2019-05-21T01:44:57.921Z,324.33
2019-05-21T01:45:57.907Z,323.66
2019-05-21T01:46:57.887Z,323.72
2019-05-21T01:47:57.876Z,323.87
2019-05-21T01:48:57.866Z,323.71
2019-05-21T01:49:57.854Z,323.72
2019-05-21T01:50:57.863Z,322.73
2019-05-21T01:51:57.846Z,323.88
2019-05-21T01:52:57.820Z,323.00
2019-05-21T01:53:57.812Z,322.74
2019-05-21T01:54:57.811Z,324.07
2019-05-21T01:55:57.784Z,323.81
2019-05-21T01:56:57.780Z,322.71
2019-05-21T01:57:57.764Z,323.08
2019-05-21T01:58:57.751Z,323.67
2019-05-21T01:59:57.744Z,323.60
2019-05-21T02:00:57.807Z,323.91
2019-05-21T02:01:57.731Z,324.31
2019-05-21T02:02:57.731Z,324.12
2019-05-21T02:03:57.699Z,323.86
2019-05-21T02:04:57.688Z,323.89
2019-05-21T02:05:57.679Z,324.62
2019-05-21T02:06:57.657Z,324.80
2019-05-21T02:07:57.652Z,324.18
2019-05-21T02:08:57.637Z,323.48
2019-05-21T02:09:57.647Z,324.26
2019-05-21T02:10:57.637Z,324.29
2019-05-21T02:11:57.608Z,324.63
2019-05-21T02:12:57.599Z,323.84
2019-05-21T02:13:57.585Z,324.52
2019-05-21T02:14:57.570Z,323.92
2019-05-21T02:15:57.568Z,324.56
2019-05-21T02:16:57.547Z,323.97
2019-05-21T02:17:57.527Z,323.91
2019-05-21T02:18:57.548Z,323.97
2019-05-21T02:19:57.550Z,324.09
2019-05-21T02:20:57.500Z,323.43
2019-05-21T02:21:57.487Z,324.03
2019-05-21T02:22:58.298Z,323.30
2019-05-21T02:23:57.469Z,324.16
2019-05-21T02:24:57.478Z,324.57
2019-05-21T02:25:57.454Z,323.55
2019-05-21T02:26:57.425Z,324.16
2019-05-21T02:27:57.424Z,323.69
2019-05-21T02:28:57.413Z,324.07
2019-05-21T02:29:57.412Z,323.69
2019-05-21T02:30:57.401Z,323.42
2019-05-21T02:31:57.377Z,323.89
2019-05-21T02:32:57.365Z,323.93
2019-05-21T02:33:57.377Z,323.37
2019-05-21T02:34:57.341Z,324.10
2019-05-21T02:35:57.336Z,323.36
2019-05-21T02:36:57.325Z,323.78
2019-05-21T02:37:57.315Z,323.22
2019-05-21T02:38:57.302Z,323.56
2019-05-21T02:39:57.282Z,323.86
2019-05-21T02:40:57.277Z,323.40
2019-05-21T02:41:57.288Z,323.58
2019-05-21T02:42:57.244Z,324.05
2019-05-21T02:43:57.236Z,324.37
2019-05-21T02:44:57.244Z,324.02
2019-05-21T02:45:57.220Z,323.35
2019-05-21T02:46:57.218Z,323.75
2019-05-21T02:47:57.189Z,323.33
2019-05-21T02:48:57.193Z,323.63
2019-05-21T02:49:57.175Z,324.04
2019-05-21T02:50:57.174Z,323.73
2019-05-21T02:51:57.154Z,323.60
2019-05-21T02:52:57.149Z,323.25
2019-05-21T02:53:57.321Z,323.39
2019-05-21T02:54:57.121Z,323.29
2019-05-21T02:55:57.114Z,323.63
2019-05-21T02:56:57.096Z,323.27
2019-05-21T02:57:57.092Z,323.05
2019-05-21T02:58:57.100Z,323.31
2019-05-21T02:59:57.061Z,322.87
2019-05-21T03:00:57.049Z,324.06
2019-05-21T03:01:57.043Z,323.13
2019-05-21T03:02:57.020Z,323.11
2019-05-21T03:03:57.028Z,323.20
2019-05-21T03:04:56.999Z,323.22
2019-05-21T03:06:12.488Z,323.51
2019-05-21T03:06:57.976Z,324.18
2019-05-21T03:07:56.996Z,323.56
2019-05-21T03:08:56.970Z,323.05
2019-05-21T03:09:56.943Z,323.94
2019-05-21T03:10:56.942Z,323.74
2019-05-21T03:11:56.916Z,324.01
2019-05-21T03:12:56.909Z,323.87
2019-05-21T03:13:56.893Z,324.13
2019-05-21T03:14:56.914Z,323.33
2019-05-21T03:15:56.885Z,323.68
2019-05-21T03:16:56.877Z,323.58
2019-05-21T03:17:57.096Z,324.02
2019-05-21T03:18:56.841Z,323.97
2019-05-21T03:19:56.855Z,323.98
2019-05-21T03:20:56.814Z,323.81
2019-05-21T03:21:56.802Z,324.25
2019-05-21T03:22:56.801Z,324.67
2019-05-21T03:23:56.798Z,324.92
2019-05-21T03:25:01.380Z,324.78
2019-05-21T03:25:57.756Z,324.36
2019-05-21T03:26:56.753Z,325.04
2019-05-21T03:27:56.736Z,324.74
2019-05-21T03:28:56.744Z,325.86
2019-05-21T03:29:56.722Z,324.91
2019-05-21T03:30:56.699Z,325.38
2019-05-21T03:31:56.703Z,325.63
2019-05-21T03:32:56.682Z,325.95
2019-05-21T03:33:56.661Z,326.08
2019-05-21T03:34:56.675Z,325.71
2019-05-21T03:35:56.677Z,326.83
2019-05-21T03:36:56.700Z,326.59
2019-05-21T03:37:56.629Z,327.11
2019-05-21T03:38:56.622Z,327.36
2019-05-21T03:39:56.602Z,326.63
2019-05-21T03:40:56.592Z,327.21
2019-05-21T03:41:56.584Z,327.87
2019-05-21T03:42:56.587Z,327.71
2019-05-21T03:43:56.558Z,327.98
2019-05-21T03:45:00.364Z,328.16
2019-05-21T03:45:56.589Z,327.74
2019-05-21T03:46:56.527Z,328.18
2019-05-21T03:47:56.524Z,328.33
2019-05-21T03:48:56.494Z,327.87
2019-05-21T03:49:56.487Z,328.64
2019-05-21T03:50:56.474Z,328.88
2019-05-21T03:51:56.476Z,329.31
2019-05-21T03:52:56.485Z,328.67
2019-05-21T03:53:57.215Z,329.03
2019-05-21T03:54:56.461Z,329.30
2019-05-21T03:55:56.608Z,329.19
2019-05-21T03:56:56.455Z,329.48
2019-05-21T03:57:56.405Z,328.02
2019-05-21T03:58:56.463Z,328.27
2019-05-21T03:59:56.389Z,328.60
2019-05-21T04:00:56.358Z,328.31
2019-05-21T04:01:56.361Z,327.89
2019-05-21T04:02:56.366Z,328.50
2019-05-21T04:03:56.331Z,327.86
2019-05-21T04:04:56.333Z,328.01
2019-05-21T04:05:56.318Z,329.18
2019-05-21T04:06:56.301Z,328.62
2019-05-21T04:07:56.303Z,327.72
2019-05-21T04:08:56.371Z,328.54
2019-05-21T04:09:56.270Z,328.87
2019-05-21T04:10:56.252Z,328.61
2019-05-21T04:11:56.240Z,329.15
2019-05-21T04:12:56.247Z,329.53
2019-05-21T04:13:56.228Z,330.51
2019-05-21T04:14:56.206Z,330.66
2019-05-21T04:15:56.210Z,329.48
2019-05-21T04:16:56.287Z,329.86
2019-05-21T04:17:56.166Z,329.05
2019-05-21T04:18:56.229Z,329.17
2019-05-21T04:19:56.151Z,328.75
2019-05-21T04:20:56.149Z,328.83
2019-05-21T04:21:56.136Z,328.60
2019-05-21T04:22:56.125Z,326.94
2019-05-21T04:23:56.101Z,328.67
2019-05-21T04:24:56.090Z,328.76
2019-05-21T04:25:56.077Z,328.28
2019-05-21T04:26:56.074Z,329.92
2019-05-21T04:27:56.082Z,329.54
2019-05-21T04:28:56.253Z,329.45
2019-05-21T04:29:56.036Z,328.33
2019-05-21T04:30:56.018Z,328.46
2019-05-21T04:31:56.040Z,330.50
2019-05-21T04:32:56.007Z,329.45
2019-05-21T04:33:55.980Z,329.69
2019-05-21T04:34:55.982Z,328.96
2019-05-21T04:35:55.963Z,328.17
2019-05-21T04:37:09.792Z,329.14
2019-05-21T04:37:56.945Z,328.38
2019-05-21T04:38:55.987Z,329.25
2019-05-21T04:39:55.941Z,330.12
2019-05-21T04:40:55.912Z,330.13
2019-05-21T04:41:55.899Z,331.69
2019-05-21T04:42:55.892Z,330.66
2019-05-21T04:43:55.883Z,332.11
2019-05-21T04:44:55.904Z,333.77
2019-05-21T04:45:55.951Z,332.22
2019-05-21T04:46:55.846Z,333.23
2019-05-21T04:47:55.870Z,333.20
2019-05-21T04:48:55.871Z,335.08
2019-05-21T04:49:55.820Z,331.26
2019-05-21T04:50:55.877Z,333.26
2019-05-21T04:51:55.786Z,335.75
2019-05-21T04:52:55.778Z,334.13
2019-05-21T04:53:55.782Z,335.59
2019-05-21T04:54:55.757Z,335.08
2019-05-21T04:55:55.732Z,335.10
2019-05-21T04:56:55.729Z,336.66
2019-05-21T04:57:55.734Z,336.77
2019-05-21T04:58:55.710Z,339.50
2019-05-21T04:59:55.708Z,337.79
2019-05-21T05:00:55.702Z,341.18
2019-05-21T05:01:55.671Z,340.19
2019-05-21T05:02:55.664Z,337.64
2019-05-21T05:03:55.676Z,339.26
2019-05-21T05:04:55.634Z,337.53
2019-05-21T05:05:55.636Z,337.51
2019-05-21T05:06:55.616Z,339.38
2019-05-21T05:07:55.607Z,340.12
2019-05-21T05:08:55.597Z,339.92
2019-05-21T05:09:55.581Z,338.17
2019-05-21T05:10:55.577Z,339.31
2019-05-21T05:11:55.565Z,337.92
2019-05-21T05:12:55.554Z,336.98
2019-05-21T05:13:55.540Z,339.87
2019-05-21T05:14:55.528Z,336.82
2019-05-21T05:15:55.511Z,339.25
2019-05-21T05:16:55.518Z,335.60
2019-05-21T05:17:55.499Z,338.13
2019-05-21T05:18:55.484Z,338.40
2019-05-21T05:19:55.471Z,334.25
2019-05-21T05:20:55.461Z,335.11
2019-05-21T05:21:55.448Z,332.73
2019-05-21T05:22:55.438Z,332.48
2019-05-21T05:23:55.481Z,334.62
2019-05-21T05:24:55.409Z,337.42
2019-05-21T05:25:55.417Z,333.82
2019-05-21T05:26:55.391Z,331.77
2019-05-21T05:27:55.385Z,332.10
2019-05-21T05:28:55.402Z,330.63
2019-05-21T05:29:55.360Z,332.71
2019-05-21T05:30:55.351Z,333.98
2019-05-21T05:31:55.336Z,334.01
2019-05-21T05:32:55.324Z,332.95
2019-05-21T05:33:55.325Z,327.17
2019-05-21T05:34:55.449Z,329.61
2019-05-21T05:35:55.295Z,329.01
2019-05-21T05:36:55.280Z,329.14
2019-05-21T05:37:55.269Z,325.24
2019-05-21T05:38:55.281Z,324.97
2019-05-21T05:39:55.281Z,325.65
2019-05-21T05:40:55.254Z,326.21
2019-05-21T05:41:55.223Z,325.48
2019-05-21T05:42:55.240Z,327.67
2019-05-21T05:43:55.208Z,325.70
2019-05-21T05:44:55.199Z,323.55
2019-05-21T05:45:55.195Z,323.77
2019-05-21T05:46:55.165Z,323.92
2019-05-21T05:47:55.156Z,323.31
2019-05-21T05:48:55.144Z,327.26
2019-05-21T05:49:55.151Z,327.37
2019-05-21T05:50:55.140Z,323.20
2019-05-21T05:51:55.138Z,323.51
2019-05-21T05:52:55.108Z,323.56
2019-05-21T05:53:55.092Z,324.00
2019-05-21T05:54:55.092Z,325.07
2019-05-21T05:55:55.076Z,327.28
2019-05-21T05:56:55.062Z,326.97
2019-05-21T05:57:55.043Z,331.79
2019-05-21T05:58:55.036Z,326.32
2019-05-21T05:59:55.025Z,325.93
2019-05-21T06:00:55.018Z,325.64
2019-05-21T06:01:55.007Z,327.74
2019-05-21T06:02:55.030Z,326.91
2019-05-21T06:03:55.019Z,326.84
2019-05-21T06:04:54.966Z,328.38
2019-05-21T06:05:54.975Z,328.25
2019-05-21T06:06:54.941Z,329.30
2019-05-21T06:07:59.826Z,329.95
2019-05-21T06:08:55.919Z,326.48
2019-05-21T06:09:54.913Z,327.28
2019-05-21T06:10:54.901Z,327.18
2019-05-21T06:11:54.887Z,326.49
2019-05-21T06:12:54.875Z,327.41
2019-05-21T06:13:54.868Z,326.27
2019-05-21T06:14:54.856Z,327.78
2019-05-21T06:15:54.939Z,327.34
2019-05-21T06:16:54.832Z,327.39
2019-05-21T06:17:54.837Z,327.08
2019-05-21T06:18:54.812Z,326.81
2019-05-21T06:19:54.898Z,329.78
2019-05-21T06:20:54.784Z,328.94
2019-05-21T06:21:54.777Z,327.45
2019-05-21T06:22:54.759Z,328.07
2019-05-21T06:23:54.764Z,329.01
2019-05-21T06:24:54.756Z,327.20
2019-05-21T06:25:54.853Z,327.88
2019-05-21T06:26:54.738Z,326.97
2019-05-21T06:27:54.715Z,327.91
2019-05-21T06:28:55.290Z,328.81
2019-05-21T06:29:54.685Z,328.57
2019-05-21T06:30:54.685Z,328.54
2019-05-21T06:31:54.750Z,329.29
2019-05-21T06:32:54.651Z,329.84
2019-05-21T06:33:54.647Z,330.32
2019-05-21T06:34:54.629Z,331.08
2019-05-21T06:35:54.621Z,330.55
2019-05-21T06:36:54.602Z,329.77
2019-05-21T06:37:54.591Z,328.29
2019-05-21T06:38:54.582Z,329.70
2019-05-21T06:39:54.585Z,329.87
2019-05-21T06:40:54.577Z,329.44
2019-05-21T06:41:54.567Z,328.76
2019-05-21T06:42:54.564Z,327.89
2019-05-21T06:43:54.531Z,327.30
2019-05-21T06:44:54.539Z,326.85
2019-05-21T06:45:54.504Z,327.98
2019-05-21T06:46:54.499Z,328.84
2019-05-21T06:47:54.563Z,327.51
2019-05-21T06:48:54.563Z,327.26
2019-05-21T06:49:54.457Z,328.49
2019-05-21T06:50:54.445Z,328.79
2019-05-21T06:51:54.434Z,329.51
2019-05-21T06:52:54.439Z,328.47
2019-05-21T06:53:54.411Z,329.43
2019-05-21T06:54:54.469Z,329.57
2019-05-21T06:55:54.402Z,329.04
2019-05-21T06:56:54.370Z,329.82
2019-05-21T06:57:54.391Z,328.26
2019-05-21T06:58:54.393Z,327.45
2019-05-21T06:59:54.394Z,326.89
2019-05-21T07:00:54.338Z,327.28
2019-05-21T07:01:54.320Z,328.47
2019-05-21T07:02:54.313Z,329.93
2019-05-21T07:03:54.318Z,329.64
2019-05-21T07:04:54.297Z,329.63
2019-05-21T07:05:58.990Z,329.09
2019-05-21T07:06:55.263Z,327.93
2019-05-21T07:07:54.251Z,327.04
2019-05-21T07:08:54.250Z,327.21
2019-05-21T07:09:54.223Z,329.40
2019-05-21T07:10:54.210Z,328.51
2019-05-21T07:11:54.218Z,328.86
2019-05-21T07:12:54.189Z,329.15
2019-05-21T07:13:54.184Z,331.27
2019-05-21T07:14:54.188Z,330.57
2019-05-21T07:15:54.173Z,329.96
2019-05-21T07:16:54.146Z,329.61
2019-05-21T07:17:54.151Z,330.93
2019-05-21T07:18:54.163Z,328.27
2019-05-21T07:19:54.132Z,329.07
2019-05-21T07:20:54.118Z,327.46
2019-05-21T07:21:54.166Z,326.65
2019-05-21T07:22:54.167Z,328.09
2019-05-21T07:23:54.898Z,325.92
2019-05-21T07:24:54.056Z,329.30
2019-05-21T07:25:54.046Z,326.08
2019-05-21T07:26:54.040Z,325.65
2019-05-21T07:27:54.018Z,325.68
2019-05-21T07:28:55.381Z,326.02
2019-05-21T07:29:54.001Z,325.37
2019-05-21T07:30:53.994Z,326.33
2019-05-21T07:31:54.032Z,326.90
2019-05-21T07:32:54.051Z,327.40
2019-05-21T07:33:53.966Z,326.90
2019-05-21T07:34:53.965Z,326.00
2019-05-21T07:35:53.961Z,329.71
2019-05-21T07:36:53.933Z,328.43
2019-05-21T07:37:53.910Z,328.31
2019-05-21T07:38:54.387Z,328.54
2019-05-21T07:39:53.886Z,327.97
2019-05-21T07:40:53.878Z,328.03
2019-05-21T07:41:53.872Z,328.08
2019-05-21T07:42:53.879Z,329.54
2019-05-21T07:43:53.836Z,329.37
2019-05-21T07:44:53.831Z,328.37
2019-05-21T07:45:53.842Z,327.48
2019-05-21T07:46:53.807Z,326.96
2019-05-21T07:47:53.801Z,328.61
2019-05-21T07:48:53.782Z,328.39
2019-05-21T07:49:53.773Z,327.47
2019-05-21T07:50:53.897Z,325.95
2019-05-21T07:51:53.774Z,328.28
2019-05-21T07:52:53.751Z,328.05
2019-05-21T07:53:53.775Z,330.02
2019-05-21T07:54:53.717Z,328.20
2019-05-21T07:55:53.706Z,324.70
2019-05-21T07:56:53.750Z,326.16
2019-05-21T07:57:53.695Z,326.70
2019-05-21T07:58:53.685Z,326.98
2019-05-21T07:59:53.659Z,329.60
2019-05-21T08:00:53.654Z,331.34
2019-05-21T08:01:53.636Z,330.46
2019-05-21T08:02:53.639Z,329.56
2019-05-21T08:03:53.751Z,325.92
2019-05-21T08:04:53.606Z,324.80
2019-05-21T08:05:53.587Z,328.06
2019-05-21T08:06:53.605Z,329.80
2019-05-21T08:07:53.566Z,329.26
2019-05-21T08:09:11.367Z,327.65
2019-05-21T08:09:54.543Z,327.63
2019-05-21T08:10:53.543Z,326.65
2019-05-21T08:11:53.555Z,326.98
2019-05-21T08:12:53.526Z,326.22
2019-05-21T08:13:53.513Z,327.97
2019-05-21T08:14:53.516Z,326.77
2019-05-21T08:15:53.511Z,329.85
2019-05-21T08:16:53.469Z,326.91
2019-05-21T08:17:53.470Z,328.06
2019-05-21T08:18:53.482Z,327.80
2019-05-21T08:19:53.439Z,326.47
2019-05-21T08:20:53.433Z,326.15
2019-05-21T08:21:53.425Z,327.78
2019-05-21T08:22:53.534Z,327.47
2019-05-21T08:23:53.390Z,327.42
2019-05-21T08:24:53.382Z,327.78
2019-05-21T08:25:53.362Z,326.07
2019-05-21T08:26:53.376Z,326.05
2019-05-21T08:27:53.352Z,326.09
2019-05-21T08:28:53.333Z,326.84
2019-05-21T08:29:53.321Z,326.13
2019-05-21T08:30:53.308Z,327.19
2019-05-21T08:31:53.301Z,327.22
2019-05-21T08:32:53.291Z,325.30
2019-05-21T08:33:53.273Z,327.36
2019-05-21T08:34:53.262Z,326.16
2019-05-21T08:35:53.284Z,327.08
2019-05-21T08:36:53.240Z,326.60
2019-05-21T08:37:53.232Z,326.63
2019-05-21T08:38:53.216Z,325.94
2019-05-21T08:39:53.209Z,325.98
2019-05-21T08:40:53.189Z,325.27
2019-05-21T08:41:53.200Z,322.60
2019-05-21T08:42:53.176Z,324.26
2019-05-21T08:43:53.171Z,324.95
2019-05-21T08:44:53.151Z,325.63
2019-05-21T08:45:53.142Z,326.18
2019-05-21T08:46:53.129Z,324.78
2019-05-21T08:47:53.111Z,325.40
2019-05-21T08:48:53.106Z,328.49
2019-05-21T08:49:53.114Z,331.21
2019-05-21T08:50:53.089Z,331.24
2019-05-21T08:51:53.136Z,330.63
2019-05-21T08:52:53.076Z,329.23
2019-05-21T08:53:53.047Z,329.03
2019-05-21T08:55:05.911Z,331.55
2019-05-21T08:55:54.023Z,327.34
2019-05-21T08:56:53.016Z,329.30
2019-05-21T08:58:06.581Z,329.51
2019-05-21T08:58:54.038Z,325.88
2019-05-21T08:59:52.990Z,325.95
2019-05-21T09:00:52.975Z,327.09
2019-05-21T09:01:52.998Z,330.48
2019-05-21T09:02:52.953Z,330.64
2019-05-21T09:03:52.958Z,331.04
2019-05-21T09:04:52.927Z,332.47
2019-05-21T09:05:52.922Z,331.32
2019-05-21T09:06:52.905Z,331.73
2019-05-21T09:07:54.116Z,328.25
2019-05-21T09:08:52.880Z,329.93
2019-05-21T09:09:52.899Z,326.14
2019-05-21T09:10:52.854Z,326.27
2019-05-21T09:11:52.851Z,328.22
2019-05-21T09:12:52.841Z,330.48
2019-05-21T09:13:52.874Z,326.32
2019-05-21T09:14:52.820Z,328.82
2019-05-21T09:15:52.807Z,330.54
2019-05-21T09:16:52.810Z,329.98
2019-05-21T09:17:52.798Z,326.46
2019-05-21T09:18:52.767Z,329.37
2019-05-21T09:19:52.755Z,326.93
2019-05-21T09:20:52.758Z,327.87
2019-05-21T09:21:52.734Z,326.34
2019-05-21T09:22:52.734Z,327.63
2019-05-21T09:23:52.712Z,329.27
2019-05-21T09:24:52.704Z,328.94
2019-05-21T09:25:52.691Z,327.29
2019-05-21T09:26:52.681Z,325.86
2019-05-21T09:27:52.665Z,328.06
2019-05-21T09:28:52.683Z,330.01
2019-05-21T09:29:52.650Z,329.66
2019-05-21T09:30:52.654Z,334.71
2019-05-21T09:31:52.645Z,334.10
2019-05-21T09:32:52.614Z,329.42
2019-05-21T09:33:52.610Z,332.88
2019-05-21T09:34:52.614Z,329.25
2019-05-21T09:35:52.575Z,331.50
2019-05-21T09:36:52.569Z,332.66
2019-05-21T09:37:52.579Z,331.32
2019-05-21T09:38:52.569Z,331.63
2019-05-21T09:39:52.575Z,330.10
2019-05-21T09:40:52.570Z,327.10
2019-05-21T09:41:52.513Z,329.38
2019-05-21T09:42:52.498Z,326.52
2019-05-21T09:43:52.490Z,330.83
2019-05-21T09:44:52.485Z,327.23
2019-05-21T09:45:52.502Z,322.86
2019-05-21T09:46:52.451Z,323.85
2019-05-21T09:47:52.445Z,323.03
2019-05-21T09:48:54.281Z,323.24
2019-05-21T09:49:52.425Z,326.22
2019-05-21T09:50:52.412Z,323.29
2019-05-21T09:51:52.416Z,322.15
2019-05-21T09:52:52.465Z,326.30
2019-05-21T09:53:52.383Z,331.09
2019-05-21T09:54:52.389Z,327.76
2019-05-21T09:55:52.394Z,330.34
2019-05-21T09:56:52.345Z,332.33
2019-05-21T09:57:52.372Z,333.61
2019-05-21T09:58:52.320Z,331.05
2019-05-21T09:59:52.310Z,332.86
2019-05-21T10:00:52.298Z,333.10
2019-05-21T10:01:52.306Z,336.23
2019-05-21T10:02:52.292Z,336.41
2019-05-21T10:03:52.270Z,335.08
2019-05-21T10:04:52.259Z,335.53
2019-05-21T10:05:52.252Z,330.94
2019-05-21T10:06:52.236Z,334.88
2019-05-21T10:07:52.233Z,333.21
2019-05-21T10:08:52.210Z,335.48
2019-05-21T10:09:52.200Z,332.59
2019-05-21T10:10:52.188Z,331.62
2019-05-21T10:11:52.172Z,333.79
2019-05-21T10:12:52.172Z,328.70
2019-05-21T10:13:52.163Z,327.27
2019-05-21T10:14:52.148Z,328.17
2019-05-21T10:15:52.130Z,334.53
2019-05-21T10:16:52.118Z,327.54
2019-05-21T10:17:52.110Z,331.90
2019-05-21T10:18:52.118Z,325.45
2019-05-21T10:19:52.103Z,328.22
2019-05-21T10:20:52.095Z,327.62
2019-05-21T10:21:52.067Z,331.11
2019-05-21T10:22:52.072Z,332.00
2019-05-21T10:23:52.043Z,331.01
2019-05-21T10:24:52.057Z,331.96
2019-05-21T10:25:52.048Z,330.26
2019-05-21T10:26:52.008Z,331.49
2019-05-21T10:27:51.993Z,330.91
2019-05-21T10:28:51.984Z,330.56
2019-05-21T10:29:51.983Z,329.24
2019-05-21T10:30:52.011Z,331.34
2019-05-21T10:31:51.948Z,329.15
2019-05-21T10:32:51.936Z,334.43
2019-05-21T10:33:51.937Z,331.88
2019-05-21T10:34:51.939Z,333.85
2019-05-21T10:35:51.949Z,328.86
2019-05-21T10:36:51.898Z,330.42
2019-05-21T10:37:54.938Z,329.60
2019-05-21T10:38:51.871Z,331.54
2019-05-21T10:39:51.861Z,329.13
2019-05-21T10:40:51.852Z,332.07
2019-05-21T10:41:51.849Z,330.15
2019-05-21T10:42:51.846Z,323.64
2019-05-21T10:43:51.846Z,325.94
2019-05-21T10:44:51.803Z,329.51
2019-05-21T10:45:51.805Z,329.42
2019-05-21T10:46:51.805Z,328.74
2019-05-21T10:47:51.766Z,327.74
2019-05-21T10:48:51.763Z,329.45
2019-05-21T10:49:51.746Z,332.21
2019-05-21T10:50:51.730Z,329.59
2019-05-21T10:51:51.731Z,331.38
2019-05-21T10:52:51.741Z,332.92
2019-05-21T10:53:51.728Z,328.49
2019-05-21T10:54:51.704Z,332.46
2019-05-21T10:55:51.674Z,333.07
2019-05-21T10:56:51.665Z,332.85
2019-05-21T10:57:51.670Z,329.22
2019-05-21T10:58:51.640Z,332.80
2019-05-21T10:59:51.633Z,327.78
2019-05-21T11:00:51.622Z,331.50
2019-05-21T11:01:51.652Z,333.15
2019-05-21T11:02:51.703Z,331.84
2019-05-21T11:03:51.589Z,328.79
2019-05-21T11:04:51.581Z,335.09
2019-05-21T11:06:08.603Z,336.14
2019-05-21T11:06:52.557Z,334.36
2019-05-21T11:07:51.539Z,332.46
2019-05-21T11:08:51.529Z,330.02
2019-05-21T11:09:51.535Z,328.48
2019-05-21T11:10:51.528Z,327.50
2019-05-21T11:11:51.511Z,329.38
2019-05-21T11:12:51.484Z,329.80
2019-05-21T11:13:51.479Z,330.59
2019-05-21T11:14:51.471Z,332.40
2019-05-21T11:15:51.471Z,330.71
2019-05-21T11:16:51.451Z,335.38
2019-05-21T11:18:09.033Z,330.91
2019-05-21T11:18:52.420Z,327.97
2019-05-21T11:19:51.411Z,335.35
2019-05-21T11:20:51.801Z,331.26
2019-05-21T11:21:51.389Z,329.76
2019-05-21T11:22:51.386Z,335.86
2019-05-21T11:23:51.419Z,329.74
2019-05-21T11:24:51.351Z,327.77
2019-05-21T11:25:51.349Z,335.19
2019-05-21T11:26:51.351Z,336.01
2019-05-21T11:27:51.324Z,326.70
2019-05-21T11:28:51.329Z,328.71
2019-05-21T11:29:51.326Z,327.61
2019-05-21T11:30:51.772Z,332.61
2019-05-21T11:31:57.150Z,330.65
2019-05-21T11:32:52.263Z,333.25
2019-05-21T11:33:51.266Z,331.00
2019-05-21T11:34:51.242Z,331.12
2019-05-21T11:35:51.227Z,329.82
2019-05-21T11:36:51.222Z,332.97
2019-05-21T11:37:51.222Z,332.20
2019-05-21T11:38:51.207Z,325.26
2019-05-21T11:39:51.191Z,326.77
2019-05-21T11:40:51.496Z,328.77
2019-05-21T11:41:51.720Z,324.32
2019-05-21T11:42:53.119Z,325.00
2019-05-21T11:43:51.164Z,324.78
2019-05-21T11:44:51.136Z,325.63
2019-05-21T11:45:51.137Z,324.62
2019-05-21T11:46:51.112Z,326.63
2019-05-21T11:47:54.424Z,325.21
2019-05-21T11:48:51.133Z,324.04
2019-05-21T11:49:51.077Z,325.01
2019-05-21T11:50:51.059Z,325.61
2019-05-21T11:51:51.052Z,324.97
2019-05-21T11:52:51.040Z,325.15
2019-05-21T11:53:51.223Z,325.14
2019-05-21T11:54:51.032Z,324.13
2019-05-21T11:55:51.047Z,326.80
2019-05-21T11:56:50.996Z,326.68
2019-05-21T11:57:50.996Z,327.00
2019-05-21T11:58:51.039Z,327.29
2019-05-21T11:59:50.991Z,329.76
2019-05-21T12:00:50.966Z,326.20
2019-05-21T12:01:50.944Z,330.91
2019-05-21T12:02:50.929Z,326.27
2019-05-21T12:03:50.929Z,328.93
2019-05-21T12:04:50.914Z,328.33
2019-05-21T12:05:50.961Z,326.90
2019-05-21T12:06:50.878Z,330.20
2019-05-21T12:07:50.867Z,327.29
2019-05-21T12:08:56.599Z,327.58
2019-05-21T12:09:51.865Z,326.03
2019-05-21T12:10:50.850Z,329.91
2019-05-21T12:11:50.822Z,326.50
2019-05-21T12:12:50.862Z,326.35
2019-05-21T12:13:50.801Z,328.73
2019-05-21T12:14:50.807Z,326.37
2019-05-21T12:15:50.783Z,327.15
2019-05-21T12:16:50.774Z,327.49
2019-05-21T12:17:50.764Z,329.68
2019-05-21T12:18:50.839Z,327.31
2019-05-21T12:19:50.806Z,329.52
2019-05-21T12:20:50.779Z,327.64
2019-05-21T12:21:50.731Z,327.98
2019-05-21T12:22:50.716Z,328.21
2019-05-21T12:23:50.699Z,328.58
2019-05-21T12:24:50.696Z,328.99
2019-05-21T12:25:50.701Z,329.58
2019-05-21T12:26:50.680Z,329.94
2019-05-21T12:27:50.672Z,333.36
2019-05-21T12:28:50.687Z,329.89